sensor_id;sensor_type;location;lat;lon;timestamp;P1;durP1;ratioP1;P2;durP2;ratioP2
19221;SDS011;9745;50.828;4.378;2023-05-10T00:01:10;13.63;;;6.53;;
19221;SDS011;9745;50.828;4.378;2023-05-10T00:03:36;18.60;;;7.13;;
19221;SDS011;9745;50.828;4.378;2023-05-10T00:06:02;17.17;;;6.60;;
19221;SDS011;9745;50.828;4.378;2023-05-10T00:08:28;13.70;;;6.83;;
19221;SDS011;9745;50.828;4.378;2023-05-10T00:10:54;14.20;;;6.47;;
19221;SDS011;9745;50.828;4.378;2023-05-10T00:13:21;14.43;;;6.30;;
19221;SDS011;9745;50.828;4.378;2023-05-10T00:15:47;17.80;;;6.60;;
19221;SDS011;9745;50.828;4.378;2023-05-10T00:18:13;16.80;;;6.97;;
19221;SDS011;9745;50.828;4.378;2023-05-10T00:20:39;15.13;;;7.57;;
19221;SDS011;9745;50.828;4.378;2023-05-10T00:23:05;16.20;;;7.43;;
19221;SDS011;9745;50.828;4.378;2023-05-10T00:25:31;15.70;;;7.67;;
19221;SDS011;9745;50.828;4.378;2023-05-10T00:27:57;17.90;;;8.13;;
19221;SDS011;9745;50.828;4.378;2023-05-10T00:30:23;12.67;;;7.33;;
19221;SDS011;9745;50.828;4.378;2023-05-10T00:32:49;22.13;;;9.40;;
19221;SDS011;9745;50.828;4.378;2023-05-10T00:35:16;16.77;;;7.97;;
19221;SDS011;9745;50.828;4.378;2023-05-10T00:37:42;12.33;;;7.27;;
19221;SDS011;9745;50.828;4.378;2023-05-10T00:40:08;10.77;;;7.30;;
19221;SDS011;9745;50.828;4.378;2023-05-10T00:42:35;14.43;;;7.00;;
19221;SDS011;9745;50.828;4.378;2023-05-10T00:45:01;14.83;;;7.83;;
19221;SDS011;9745;50.828;4.378;2023-05-10T00:47:27;15.00;;;7.97;;
19221;SDS011;9745;50.828;4.378;2023-05-10T00:49:53;15.37;;;8.07;;
19221;SDS011;9745;50.828;4.378;2023-05-10T00:52:20;10.70;;;8.10;;
19221;SDS011;9745;50.828;4.378;2023-05-10T00:54:49;13.97;;;7.40;;
19221;SDS011;9745;50.828;4.378;2023-05-10T00:57:15;14.40;;;7.70;;
19221;SDS011;9745;50.828;4.378;2023-05-10T00:59:41;14.87;;;8.33;;
19221;SDS011;9745;50.828;4.378;2023-05-10T01:02:07;16.60;;;8.73;;
19221;SDS011;9745;50.828;4.378;2023-05-10T01:04:33;19.00;;;8.30;;
19221;SDS011;9745;50.828;4.378;2023-05-10T01:07:00;13.83;;;8.13;;
19221;SDS011;9745;50.828;4.378;2023-05-10T01:09:26;18.90;;;8.93;;
19221;SDS011;9745;50.828;4.378;2023-05-10T01:11:53;16.27;;;8.13;;
19221;SDS011;9745;50.828;4.378;2023-05-10T01:14:19;13.57;;;8.10;;
19221;SDS011;9745;50.828;4.378;2023-05-10T01:16:46;15.47;;;8.83;;
19221;SDS011;9745;50.828;4.378;2023-05-10T01:19:17;20.73;;;9.67;;
19221;SDS011;9745;50.828;4.378;2023-05-10T01:21:49;15.83;;;9.33;;
19221;SDS011;9745;50.828;4.378;2023-05-10T01:35:10;20.03;;;9.90;;
19221;SDS011;9745;50.828;4.378;2023-05-10T01:37:50;16.33;;;9.27;;
19221;SDS011;9745;50.828;4.378;2023-05-10T01:40:30;15.93;;;8.63;;
19221;SDS011;9745;50.828;4.378;2023-05-10T01:43:01;13.40;;;8.23;;
19221;SDS011;9745;50.828;4.378;2023-05-10T01:45:31;16.83;;;9.10;;
19221;SDS011;9745;50.828;4.378;2023-05-10T01:48:09;18.23;;;9.47;;
19221;SDS011;9745;50.828;4.378;2023-05-10T01:50:37;18.03;;;9.00;;
19221;SDS011;9745;50.828;4.378;2023-05-10T01:53:04;14.93;;;9.00;;
19221;SDS011;9745;50.828;4.378;2023-05-10T01:55:32;14.57;;;8.73;;
19221;SDS011;9745;50.828;4.378;2023-05-10T01:58:05;16.23;;;9.30;;
19221;SDS011;9745;50.828;4.378;2023-05-10T02:00:33;17.73;;;10.27;;
19221;SDS011;9745;50.828;4.378;2023-05-10T02:03:00;16.70;;;9.37;;
19221;SDS011;9745;50.828;4.378;2023-05-10T02:05:26;15.73;;;9.03;;
19221;SDS011;9745;50.828;4.378;2023-05-10T02:07:52;18.77;;;10.13;;
19221;SDS011;9745;50.828;4.378;2023-05-10T02:10:18;17.80;;;9.70;;
19221;SDS011;9745;50.828;4.378;2023-05-10T02:12:46;16.83;;;9.37;;
19221;SDS011;9745;50.828;4.378;2023-05-10T02:15:15;20.97;;;10.47;;
19221;SDS011;9745;50.828;4.378;2023-05-10T02:17:42;17.27;;;9.60;;
19221;SDS011;9745;50.828;4.378;2023-05-10T02:20:09;17.57;;;10.20;;
19221;SDS011;9745;50.828;4.378;2023-05-10T02:22:35;20.73;;;9.50;;
19221;SDS011;9745;50.828;4.378;2023-05-10T02:25:03;16.50;;;9.50;;
19221;SDS011;9745;50.828;4.378;2023-05-10T02:27:29;16.07;;;9.43;;
19221;SDS011;9745;50.828;4.378;2023-05-10T02:29:56;19.17;;;9.13;;
19221;SDS011;9745;50.828;4.378;2023-05-10T02:32:24;17.43;;;8.87;;
19221;SDS011;9745;50.828;4.378;2023-05-10T02:34:50;14.70;;;8.77;;
19221;SDS011;9745;50.828;4.378;2023-05-10T02:37:18;18.87;;;9.60;;
19221;SDS011;9745;50.828;4.378;2023-05-10T02:39:45;16.83;;;8.40;;
19221;SDS011;9745;50.828;4.378;2023-05-10T02:42:13;17.37;;;8.50;;
19221;SDS011;9745;50.828;4.378;2023-05-10T02:44:41;18.67;;;8.97;;
19221;SDS011;9745;50.828;4.378;2023-05-10T02:47:08;23.60;;;9.87;;
19221;SDS011;9745;50.828;4.378;2023-05-10T02:49:35;14.17;;;7.97;;
19221;SDS011;9745;50.828;4.378;2023-05-10T02:52:01;15.60;;;8.37;;
19221;SDS011;9745;50.828;4.378;2023-05-10T02:54:33;17.17;;;8.20;;
19221;SDS011;9745;50.828;4.378;2023-05-10T02:57:00;15.47;;;8.60;;
19221;SDS011;9745;50.828;4.378;2023-05-10T02:59:26;13.70;;;7.60;;
19221;SDS011;9745;50.828;4.378;2023-05-10T03:01:52;18.67;;;8.13;;
19221;SDS011;9745;50.828;4.378;2023-05-10T03:04:25;16.70;;;8.57;;
19221;SDS011;9745;50.828;4.378;2023-05-10T03:06:51;13.80;;;8.50;;
19221;SDS011;9745;50.828;4.378;2023-05-10T03:09:17;14.00;;;8.13;;
19221;SDS011;9745;50.828;4.378;2023-05-10T03:14:40;16.47;;;8.60;;
19221;SDS011;9745;50.828;4.378;2023-05-10T03:22:08;19.27;;;9.23;;
19221;SDS011;9745;50.828;4.378;2023-05-10T03:24:35;15.63;;;9.40;;
19221;SDS011;9745;50.828;4.378;2023-05-10T03:27:02;16.47;;;9.27;;
19221;SDS011;9745;50.828;4.378;2023-05-10T03:29:29;18.87;;;10.10;;
19221;SDS011;9745;50.828;4.378;2023-05-10T03:31:57;18.17;;;9.70;;
19221;SDS011;9745;50.828;4.378;2023-05-10T03:34:23;18.20;;;9.67;;
19221;SDS011;9745;50.828;4.378;2023-05-10T03:36:49;19.17;;;9.50;;
19221;SDS011;9745;50.828;4.378;2023-05-10T03:39:15;20.17;;;11.20;;
19221;SDS011;9745;50.828;4.378;2023-05-10T03:41:41;20.97;;;10.97;;
19221;SDS011;9745;50.828;4.378;2023-05-10T03:44:08;17.67;;;10.60;;
19221;SDS011;9745;50.828;4.378;2023-05-10T03:46:34;19.17;;;11.33;;
19221;SDS011;9745;50.828;4.378;2023-05-10T03:49:00;20.53;;;11.00;;
19221;SDS011;9745;50.828;4.378;2023-05-10T03:51:26;25.87;;;11.67;;
19221;SDS011;9745;50.828;4.378;2023-05-10T03:53:53;20.13;;;11.53;;
19221;SDS011;9745;50.828;4.378;2023-05-10T03:56:19;24.73;;;11.73;;
19221;SDS011;9745;50.828;4.378;2023-05-10T03:58:46;20.63;;;11.63;;
19221;SDS011;9745;50.828;4.378;2023-05-10T04:01:12;24.17;;;11.53;;
19221;SDS011;9745;50.828;4.378;2023-05-10T04:03:38;25.70;;;13.43;;
19221;SDS011;9745;50.828;4.378;2023-05-10T04:06:04;19.57;;;11.43;;
19221;SDS011;9745;50.828;4.378;2023-05-10T04:08:30;24.87;;;12.50;;
19221;SDS011;9745;50.828;4.378;2023-05-10T04:11:09;26.37;;;13.10;;
19221;SDS011;9745;50.828;4.378;2023-05-10T04:13:36;27.43;;;13.67;;
19221;SDS011;9745;50.828;4.378;2023-05-10T04:16:02;21.20;;;12.43;;
19221;SDS011;9745;50.828;4.378;2023-05-10T04:18:28;24.63;;;13.13;;
19221;SDS011;9745;50.828;4.378;2023-05-10T04:20:54;22.53;;;12.70;;
19221;SDS011;9745;50.828;4.378;2023-05-10T04:23:20;24.80;;;13.97;;
19221;SDS011;9745;50.828;4.378;2023-05-10T04:25:46;23.83;;;13.73;;
19221;SDS011;9745;50.828;4.378;2023-05-10T04:28:12;24.37;;;13.70;;
19221;SDS011;9745;50.828;4.378;2023-05-10T04:30:38;24.73;;;13.47;;
19221;SDS011;9745;50.828;4.378;2023-05-10T04:33:05;27.50;;;14.00;;
19221;SDS011;9745;50.828;4.378;2023-05-10T04:35:31;24.40;;;14.03;;
19221;SDS011;9745;50.828;4.378;2023-05-10T04:37:57;22.50;;;13.90;;
19221;SDS011;9745;50.828;4.378;2023-05-10T04:40:23;27.60;;;14.47;;
19221;SDS011;9745;50.828;4.378;2023-05-10T04:42:49;25.50;;;14.13;;
19221;SDS011;9745;50.828;4.378;2023-05-10T04:45:15;25.83;;;15.63;;
19221;SDS011;9745;50.828;4.378;2023-05-10T04:47:42;31.43;;;15.77;;
19221;SDS011;9745;50.828;4.378;2023-05-10T04:50:08;20.80;;;13.30;;
19221;SDS011;9745;50.828;4.378;2023-05-10T04:52:34;23.73;;;14.53;;
19221;SDS011;9745;50.828;4.378;2023-05-10T04:55:01;27.13;;;15.47;;
19221;SDS011;9745;50.828;4.378;2023-05-10T04:57:27;24.80;;;14.00;;
19221;SDS011;9745;50.828;4.378;2023-05-10T04:59:53;24.97;;;13.83;;
19221;SDS011;9745;50.828;4.378;2023-05-10T05:02:19;23.67;;;14.33;;
19221;SDS011;9745;50.828;4.378;2023-05-10T05:04:45;31.77;;;14.47;;
19221;SDS011;9745;50.828;4.378;2023-05-10T05:07:11;25.50;;;14.43;;
19221;SDS011;9745;50.828;4.378;2023-05-10T05:09:37;26.27;;;14.73;;
19221;SDS011;9745;50.828;4.378;2023-05-10T05:12:03;24.90;;;13.67;;
19221;SDS011;9745;50.828;4.378;2023-05-10T05:14:29;21.70;;;13.63;;
19221;SDS011;9745;50.828;4.378;2023-05-10T05:16:55;28.03;;;12.90;;
19221;SDS011;9745;50.828;4.378;2023-05-10T05:19:22;19.37;;;10.00;;
19221;SDS011;9745;50.828;4.378;2023-05-10T05:21:48;20.67;;;10.67;;
19221;SDS011;9745;50.828;4.378;2023-05-10T05:24:14;20.43;;;10.30;;
19221;SDS011;9745;50.828;4.378;2023-05-10T05:26:40;19.80;;;10.03;;
19221;SDS011;9745;50.828;4.378;2023-05-10T05:29:06;19.00;;;9.50;;
19221;SDS011;9745;50.828;4.378;2023-05-10T05:31:32;16.77;;;10.30;;
19221;SDS011;9745;50.828;4.378;2023-05-10T05:33:58;20.37;;;9.27;;
19221;SDS011;9745;50.828;4.378;2023-05-10T05:36:25;17.90;;;9.70;;
19221;SDS011;9745;50.828;4.378;2023-05-10T05:38:51;20.53;;;10.80;;
19221;SDS011;9745;50.828;4.378;2023-05-10T05:41:17;23.90;;;10.10;;
19221;SDS011;9745;50.828;4.378;2023-05-10T05:43:43;16.37;;;9.97;;
19221;SDS011;9745;50.828;4.378;2023-05-10T05:46:09;20.63;;;10.07;;
19221;SDS011;9745;50.828;4.378;2023-05-10T05:48:35;18.23;;;9.83;;
19221;SDS011;9745;50.828;4.378;2023-05-10T05:51:01;17.33;;;10.00;;
19221;SDS011;9745;50.828;4.378;2023-05-10T05:53:27;18.20;;;9.50;;
19221;SDS011;9745;50.828;4.378;2023-05-10T05:55:57;17.53;;;10.13;;
19221;SDS011;9745;50.828;4.378;2023-05-10T05:58:24;20.60;;;10.50;;
19221;SDS011;9745;50.828;4.378;2023-05-10T06:00:50;18.50;;;10.67;;
19221;SDS011;9745;50.828;4.378;2023-05-10T06:03:17;18.80;;;9.87;;
19221;SDS011;9745;50.828;4.378;2023-05-10T06:05:43;22.50;;;9.80;;
19221;SDS011;9745;50.828;4.378;2023-05-10T06:08:09;17.60;;;8.77;;
19221;SDS011;9745;50.828;4.378;2023-05-10T06:10:35;19.03;;;9.23;;
19221;SDS011;9745;50.828;4.378;2023-05-10T06:13:01;20.50;;;10.50;;
19221;SDS011;9745;50.828;4.378;2023-05-10T06:15:27;19.50;;;9.30;;
19221;SDS011;9745;50.828;4.378;2023-05-10T06:17:54;16.63;;;9.00;;
19221;SDS011;9745;50.828;4.378;2023-05-10T06:20:20;27.17;;;9.50;;
19221;SDS011;9745;50.828;4.378;2023-05-10T06:22:46;17.53;;;8.10;;
19221;SDS011;9745;50.828;4.378;2023-05-10T06:25:12;16.23;;;6.67;;
19221;SDS011;9745;50.828;4.378;2023-05-10T06:27:39;11.87;;;6.40;;
19221;SDS011;9745;50.828;4.378;2023-05-10T06:30:05;13.33;;;6.00;;
19221;SDS011;9745;50.828;4.378;2023-05-10T06:32:33;12.07;;;6.10;;
19221;SDS011;9745;50.828;4.378;2023-05-10T06:34:59;10.23;;;4.60;;
19221;SDS011;9745;50.828;4.378;2023-05-10T06:37:25;9.67;;;4.83;;
19221;SDS011;9745;50.828;4.378;2023-05-10T06:39:51;10.47;;;4.47;;
19221;SDS011;9745;50.828;4.378;2023-05-10T06:42:20;11.33;;;5.50;;
19221;SDS011;9745;50.828;4.378;2023-05-10T06:44:46;11.97;;;4.60;;
19221;SDS011;9745;50.828;4.378;2023-05-10T06:47:12;23.60;;;6.90;;
19221;SDS011;9745;50.828;4.378;2023-05-10T06:49:38;9.53;;;4.57;;
19221;SDS011;9745;50.828;4.378;2023-05-10T06:52:05;10.00;;;4.83;;
19221;SDS011;9745;50.828;4.378;2023-05-10T06:54:34;9.17;;;4.83;;
19221;SDS011;9745;50.828;4.378;2023-05-10T06:57:00;11.50;;;5.53;;
19221;SDS011;9745;50.828;4.378;2023-05-10T06:59:28;6.50;;;4.47;;
19221;SDS011;9745;50.828;4.378;2023-05-10T07:01:54;7.23;;;5.17;;
19221;SDS011;9745;50.828;4.378;2023-05-10T07:04:20;7.40;;;5.03;;
19221;SDS011;9745;50.828;4.378;2023-05-10T07:06:46;10.33;;;5.67;;
19221;SDS011;9745;50.828;4.378;2023-05-10T07:09:12;11.47;;;5.87;;
19221;SDS011;9745;50.828;4.378;2023-05-10T07:11:38;8.43;;;5.33;;
19221;SDS011;9745;50.828;4.378;2023-05-10T07:14:04;16.30;;;6.37;;
19221;SDS011;9745;50.828;4.378;2023-05-10T07:16:30;9.10;;;4.97;;
19221;SDS011;9745;50.828;4.378;2023-05-10T07:18:56;10.13;;;5.27;;
19221;SDS011;9745;50.828;4.378;2023-05-10T07:21:22;13.37;;;5.23;;
19221;SDS011;9745;50.828;4.378;2023-05-10T07:23:53;12.53;;;6.00;;
19221;SDS011;9745;50.828;4.378;2023-05-10T07:26:19;10.20;;;5.77;;
19221;SDS011;9745;50.828;4.378;2023-05-10T07:28:45;10.13;;;6.07;;
19221;SDS011;9745;50.828;4.378;2023-05-10T07:31:12;13.77;;;6.63;;
19221;SDS011;9745;50.828;4.378;2023-05-10T07:33:38;16.13;;;6.23;;
19221;SDS011;9745;50.828;4.378;2023-05-10T07:36:04;11.37;;;7.30;;
19221;SDS011;9745;50.828;4.378;2023-05-10T07:38:30;15.10;;;7.03;;
19221;SDS011;9745;50.828;4.378;2023-05-10T07:41:11;15.00;;;6.87;;
19221;SDS011;9745;50.828;4.378;2023-05-10T07:43:37;15.20;;;6.50;;
19221;SDS011;9745;50.828;4.378;2023-05-10T07:46:04;16.03;;;6.77;;
19221;SDS011;9745;50.828;4.378;2023-05-10T07:48:31;16.80;;;7.50;;
19221;SDS011;9745;50.828;4.378;2023-05-10T07:50:57;19.03;;;6.73;;
19221;SDS011;9745;50.828;4.378;2023-05-10T07:53:23;13.70;;;6.33;;
19221;SDS011;9745;50.828;4.378;2023-05-10T07:55:49;11.70;;;5.70;;
19221;SDS011;9745;50.828;4.378;2023-05-10T07:58:16;9.67;;;5.83;;
19221;SDS011;9745;50.828;4.378;2023-05-10T08:00:42;12.53;;;6.27;;
19221;SDS011;9745;50.828;4.378;2023-05-10T08:03:08;14.13;;;6.80;;
19221;SDS011;9745;50.828;4.378;2023-05-10T08:05:34;9.87;;;5.97;;
19221;SDS011;9745;50.828;4.378;2023-05-10T08:08:00;10.37;;;5.43;;
19221;SDS011;9745;50.828;4.378;2023-05-10T08:10:26;9.70;;;5.63;;
19221;SDS011;9745;50.828;4.378;2023-05-10T08:12:52;8.93;;;6.23;;
19221;SDS011;9745;50.828;4.378;2023-05-10T08:15:18;8.73;;;5.10;;
19221;SDS011;9745;50.828;4.378;2023-05-10T08:20:29;8.23;;;5.27;;
19221;SDS011;9745;50.828;4.378;2023-05-10T08:22:55;11.10;;;5.30;;
19221;SDS011;9745;50.828;4.378;2023-05-10T08:25:21;7.63;;;5.17;;
19221;SDS011;9745;50.828;4.378;2023-05-10T08:27:47;8.20;;;4.20;;
19221;SDS011;9745;50.828;4.378;2023-05-10T08:30:13;7.70;;;4.53;;
19221;SDS011;9745;50.828;4.378;2023-05-10T08:32:39;8.37;;;4.57;;
19221;SDS011;9745;50.828;4.378;2023-05-10T08:35:05;6.97;;;4.00;;
19221;SDS011;9745;50.828;4.378;2023-05-10T08:37:31;6.53;;;4.03;;
19221;SDS011;9745;50.828;4.378;2023-05-10T08:39:58;7.27;;;3.97;;
19221;SDS011;9745;50.828;4.378;2023-05-10T08:42:24;5.07;;;3.67;;
19221;SDS011;9745;50.828;4.378;2023-05-10T08:44:51;6.57;;;4.07;;
19221;SDS011;9745;50.828;4.378;2023-05-10T08:47:18;8.30;;;3.57;;
19221;SDS011;9745;50.828;4.378;2023-05-10T08:49:47;5.73;;;3.70;;
19221;SDS011;9745;50.828;4.378;2023-05-10T08:52:16;7.67;;;4.07;;
19221;SDS011;9745;50.828;4.378;2023-05-10T08:54:42;7.17;;;4.07;;
19221;SDS011;9745;50.828;4.378;2023-05-10T08:57:08;7.37;;;4.40;;
19221;SDS011;9745;50.828;4.378;2023-05-10T08:59:38;7.07;;;4.70;;
19221;SDS011;9745;50.828;4.378;2023-05-10T09:02:04;7.17;;;4.73;;
19221;SDS011;9745;50.828;4.378;2023-05-10T09:04:31;10.03;;;5.70;;
19221;SDS011;9745;50.828;4.378;2023-05-10T09:06:57;7.40;;;4.87;;
19221;SDS011;9745;50.828;4.378;2023-05-10T09:09:23;7.27;;;4.60;;
19221;SDS011;9745;50.828;4.378;2023-05-10T09:11:54;6.03;;;4.10;;
19221;SDS011;9745;50.828;4.378;2023-05-10T09:14:20;6.47;;;4.17;;
19221;SDS011;9745;50.828;4.378;2023-05-10T09:16:46;9.13;;;4.30;;
19221;SDS011;9745;50.828;4.378;2023-05-10T09:19:12;13.57;;;5.00;;
19221;SDS011;9745;50.828;4.378;2023-05-10T09:21:38;12.57;;;4.33;;
19221;SDS011;9745;50.828;4.378;2023-05-10T09:24:08;7.20;;;4.37;;
19221;SDS011;9745;50.828;4.378;2023-05-10T09:26:34;12.33;;;5.07;;
19221;SDS011;9745;50.828;4.378;2023-05-10T09:29:01;6.37;;;4.30;;
19221;SDS011;9745;50.828;4.378;2023-05-10T09:32:10;8.53;;;4.47;;
19221;SDS011;9745;50.828;4.378;2023-05-10T09:34:20;5.93;;;4.00;;
19221;SDS011;9745;50.828;4.378;2023-05-10T09:36:53;7.67;;;4.33;;
19221;SDS011;9745;50.828;4.378;2023-05-10T09:39:19;5.90;;;3.20;;
19221;SDS011;9745;50.828;4.378;2023-05-10T09:41:45;8.00;;;3.63;;
19221;SDS011;9745;50.828;4.378;2023-05-10T09:44:12;6.83;;;3.50;;
19221;SDS011;9745;50.828;4.378;2023-05-10T09:46:45;4.57;;;3.53;;
19221;SDS011;9745;50.828;4.378;2023-05-10T09:49:14;5.03;;;3.53;;
19221;SDS011;9745;50.828;4.378;2023-05-10T09:51:40;4.17;;;3.37;;
19221;SDS011;9745;50.828;4.378;2023-05-10T09:56:35;6.33;;;3.10;;
19221;SDS011;9745;50.828;4.378;2023-05-10T09:59:03;4.57;;;3.27;;
19221;SDS011;9745;50.828;4.378;2023-05-10T10:01:30;4.60;;;3.17;;
19221;SDS011;9745;50.828;4.378;2023-05-10T10:03:56;3.40;;;2.70;;
19221;SDS011;9745;50.828;4.378;2023-05-10T10:06:23;4.73;;;3.67;;
19221;SDS011;9745;50.828;4.378;2023-05-10T10:08:49;5.63;;;4.00;;
19221;SDS011;9745;50.828;4.378;2023-05-10T10:11:16;6.87;;;4.07;;
19221;SDS011;9745;50.828;4.378;2023-05-10T10:13:42;8.07;;;4.33;;
19221;SDS011;9745;50.828;4.378;2023-05-10T10:16:08;6.70;;;4.43;;
19221;SDS011;9745;50.828;4.378;2023-05-10T10:18:35;6.50;;;3.90;;
19221;SDS011;9745;50.828;4.378;2023-05-10T10:21:05;6.13;;;4.03;;
19221;SDS011;9745;50.828;4.378;2023-05-10T10:23:31;7.00;;;4.63;;
19221;SDS011;9745;50.828;4.378;2023-05-10T10:25:57;4.50;;;3.97;;
19221;SDS011;9745;50.828;4.378;2023-05-10T10:28:30;4.73;;;3.80;;
19221;SDS011;9745;50.828;4.378;2023-05-10T10:31:01;4.63;;;4.03;;
19221;SDS011;9745;50.828;4.378;2023-05-10T10:36:40;4.43;;;3.00;;
19221;SDS011;9745;50.828;4.378;2023-05-10T10:39:08;5.23;;;3.50;;
19221;SDS011;9745;50.828;4.378;2023-05-10T10:41:53;6.10;;;3.37;;
19221;SDS011;9745;50.828;4.378;2023-05-10T10:49:27;4.93;;;2.97;;
19221;SDS011;9745;50.828;4.378;2023-05-10T10:52:15;5.57;;;3.27;;
19221;SDS011;9745;50.828;4.378;2023-05-10T10:54:47;5.20;;;3.33;;
19221;SDS011;9745;50.828;4.378;2023-05-10T10:57:17;4.63;;;3.47;;
19221;SDS011;9745;50.828;4.378;2023-05-10T10:59:43;5.63;;;3.30;;
19221;SDS011;9745;50.828;4.378;2023-05-10T11:02:10;5.30;;;3.40;;
19221;SDS011;9745;50.828;4.378;2023-05-10T11:04:56;5.07;;;3.20;;
19221;SDS011;9745;50.828;4.378;2023-05-10T11:07:22;6.13;;;4.07;;
19221;SDS011;9745;50.828;4.378;2023-05-10T11:09:49;4.23;;;3.30;;
19221;SDS011;9745;50.828;4.378;2023-05-10T11:12:15;5.07;;;3.50;;
19221;SDS011;9745;50.828;4.378;2023-05-10T11:14:41;5.30;;;3.23;;
19221;SDS011;9745;50.828;4.378;2023-05-10T11:22:53;6.87;;;3.63;;
19221;SDS011;9745;50.828;4.378;2023-05-10T11:25:19;4.27;;;3.30;;
19221;SDS011;9745;50.828;4.378;2023-05-10T11:27:47;3.40;;;2.70;;
19221;SDS011;9745;50.828;4.378;2023-05-10T11:30:13;4.17;;;3.43;;
19221;SDS011;9745;50.828;4.378;2023-05-10T11:32:40;3.47;;;2.77;;
19221;SDS011;9745;50.828;4.378;2023-05-10T11:35:07;3.97;;;2.90;;
19221;SDS011;9745;50.828;4.378;2023-05-10T11:37:33;6.07;;;3.17;;
19221;SDS011;9745;50.828;4.378;2023-05-10T11:39:59;5.17;;;3.10;;
19221;SDS011;9745;50.828;4.378;2023-05-10T11:42:27;4.33;;;2.90;;
19221;SDS011;9745;50.828;4.378;2023-05-10T11:44:53;4.73;;;3.10;;
19221;SDS011;9745;50.828;4.378;2023-05-10T11:47:19;3.70;;;2.83;;
19221;SDS011;9745;50.828;4.378;2023-05-10T11:49:45;4.50;;;2.87;;
19221;SDS011;9745;50.828;4.378;2023-05-10T11:52:11;4.53;;;2.63;;
19221;SDS011;9745;50.828;4.378;2023-05-10T11:54:42;4.17;;;2.93;;
19221;SDS011;9745;50.828;4.378;2023-05-10T11:57:10;5.40;;;2.90;;
19221;SDS011;9745;50.828;4.378;2023-05-10T11:59:36;4.90;;;2.70;;
19221;SDS011;9745;50.828;4.378;2023-05-10T12:02:02;4.27;;;3.00;;
19221;SDS011;9745;50.828;4.378;2023-05-10T12:04:28;4.67;;;3.13;;
19221;SDS011;9745;50.828;4.378;2023-05-10T12:06:55;5.73;;;3.10;;
19221;SDS011;9745;50.828;4.378;2023-05-10T12:09:21;5.33;;;3.43;;
19221;SDS011;9745;50.828;4.378;2023-05-10T12:11:47;4.53;;;3.33;;
19221;SDS011;9745;50.828;4.378;2023-05-10T12:14:13;6.00;;;3.60;;
19221;SDS011;9745;50.828;4.378;2023-05-10T12:16:40;4.87;;;4.00;;
19221;SDS011;9745;50.828;4.378;2023-05-10T12:19:08;6.03;;;4.00;;
19221;SDS011;9745;50.828;4.378;2023-05-10T12:21:34;4.37;;;3.70;;
19221;SDS011;9745;50.828;4.378;2023-05-10T12:24:01;5.33;;;3.67;;
19221;SDS011;9745;50.828;4.378;2023-05-10T12:26:28;6.13;;;3.43;;
19221;SDS011;9745;50.828;4.378;2023-05-10T12:28:54;4.03;;;3.57;;
19221;SDS011;9745;50.828;4.378;2023-05-10T12:31:20;5.60;;;3.87;;
19221;SDS011;9745;50.828;4.378;2023-05-10T12:33:46;5.93;;;4.27;;
19221;SDS011;9745;50.828;4.378;2023-05-10T12:36:15;5.50;;;4.20;;
19221;SDS011;9745;50.828;4.378;2023-05-10T12:38:43;6.57;;;4.20;;
19221;SDS011;9745;50.828;4.378;2023-05-10T12:41:16;6.20;;;4.53;;
19221;SDS011;9745;50.828;4.378;2023-05-10T12:43:42;7.63;;;4.73;;
19221;SDS011;9745;50.828;4.378;2023-05-10T12:46:12;6.13;;;5.03;;
19221;SDS011;9745;50.828;4.378;2023-05-10T12:48:39;6.63;;;4.53;;
19221;SDS011;9745;50.828;4.378;2023-05-10T12:51:06;6.30;;;4.53;;
19221;SDS011;9745;50.828;4.378;2023-05-10T12:53:36;6.23;;;4.53;;
19221;SDS011;9745;50.828;4.378;2023-05-10T12:56:02;6.77;;;4.67;;
19221;SDS011;9745;50.828;4.378;2023-05-10T12:58:28;6.87;;;4.50;;
19221;SDS011;9745;50.828;4.378;2023-05-10T13:00:54;5.23;;;4.10;;
19221;SDS011;9745;50.828;4.378;2023-05-10T13:03:23;4.57;;;3.90;;
19221;SDS011;9745;50.828;4.378;2023-05-10T13:05:50;5.00;;;3.40;;
19221;SDS011;9745;50.828;4.378;2023-05-10T13:08:16;8.50;;;4.00;;
19221;SDS011;9745;50.828;4.378;2023-05-10T13:10:42;4.53;;;2.93;;
19221;SDS011;9745;50.828;4.378;2023-05-10T13:13:08;5.70;;;3.43;;
19221;SDS011;9745;50.828;4.378;2023-05-10T13:15:34;5.10;;;3.37;;
19221;SDS011;9745;50.828;4.378;2023-05-10T13:18:00;5.77;;;3.10;;
19221;SDS011;9745;50.828;4.378;2023-05-10T13:20:26;3.47;;;2.70;;
19221;SDS011;9745;50.828;4.378;2023-05-10T13:22:52;3.40;;;2.50;;
19221;SDS011;9745;50.828;4.378;2023-05-10T13:25:19;4.60;;;2.40;;
19221;SDS011;9745;50.828;4.378;2023-05-10T13:27:45;3.53;;;2.20;;
19221;SDS011;9745;50.828;4.378;2023-05-10T13:30:11;3.87;;;3.07;;
19221;SDS011;9745;50.828;4.378;2023-05-10T13:32:37;4.67;;;3.57;;
19221;SDS011;9745;50.828;4.378;2023-05-10T13:35:03;7.70;;;3.77;;
19221;SDS011;9745;50.828;4.378;2023-05-10T13:37:30;11.07;;;5.53;;
19221;SDS011;9745;50.828;4.378;2023-05-10T13:39:57;8.70;;;5.00;;
19221;SDS011;9745;50.828;4.378;2023-05-10T13:42:23;7.83;;;4.40;;
19221;SDS011;9745;50.828;4.378;2023-05-10T13:44:49;6.50;;;4.87;;
19221;SDS011;9745;50.828;4.378;2023-05-10T13:47:15;8.73;;;5.00;;
19221;SDS011;9745;50.828;4.378;2023-05-10T13:49:41;7.27;;;4.53;;
19221;SDS011;9745;50.828;4.378;2023-05-10T13:52:07;6.67;;;4.27;;
19221;SDS011;9745;50.828;4.378;2023-05-10T13:54:35;8.17;;;4.27;;
19221;SDS011;9745;50.828;4.378;2023-05-10T13:57:01;7.77;;;5.10;;
19221;SDS011;9745;50.828;4.378;2023-05-10T13:59:28;7.30;;;4.80;;
19221;SDS011;9745;50.828;4.378;2023-05-10T14:01:54;9.30;;;5.30;;
19221;SDS011;9745;50.828;4.378;2023-05-10T14:04:20;8.57;;;5.93;;
19221;SDS011;9745;50.828;4.378;2023-05-10T14:06:46;11.00;;;5.73;;
19221;SDS011;9745;50.828;4.378;2023-05-10T14:09:12;12.83;;;5.87;;
19221;SDS011;9745;50.828;4.378;2023-05-10T14:11:38;12.07;;;6.57;;
19221;SDS011;9745;50.828;4.378;2023-05-10T14:14:08;11.40;;;6.93;;
19221;SDS011;9745;50.828;4.378;2023-05-10T14:16:34;8.67;;;7.07;;
19221;SDS011;9745;50.828;4.378;2023-05-10T14:19:00;13.77;;;7.63;;
19221;SDS011;9745;50.828;4.378;2023-05-10T14:21:26;12.77;;;6.80;;
19221;SDS011;9745;50.828;4.378;2023-05-10T14:23:54;11.87;;;7.87;;
19221;SDS011;9745;50.828;4.378;2023-05-10T14:26:20;11.70;;;8.57;;
19221;SDS011;9745;50.828;4.378;2023-05-10T14:28:46;12.40;;;7.90;;
19221;SDS011;9745;50.828;4.378;2023-05-10T14:31:12;15.10;;;8.70;;
19221;SDS011;9745;50.828;4.378;2023-05-10T14:33:39;12.23;;;7.43;;
19221;SDS011;9745;50.828;4.378;2023-05-10T14:36:05;12.03;;;6.67;;
19221;SDS011;9745;50.828;4.378;2023-05-10T14:38:32;12.63;;;7.10;;
19221;SDS011;9745;50.828;4.378;2023-05-10T14:40:58;14.57;;;6.63;;
19221;SDS011;9745;50.828;4.378;2023-05-10T14:43:24;14.03;;;6.77;;
19221;SDS011;9745;50.828;4.378;2023-05-10T14:45:50;8.97;;;6.87;;
19221;SDS011;9745;50.828;4.378;2023-05-10T14:48:16;11.50;;;7.53;;
19221;SDS011;9745;50.828;4.378;2023-05-10T14:50:42;11.20;;;6.63;;
19221;SDS011;9745;50.828;4.378;2023-05-10T14:53:09;12.23;;;7.80;;
19221;SDS011;9745;50.828;4.378;2023-05-10T14:55:35;14.07;;;7.90;;
19221;SDS011;9745;50.828;4.378;2023-05-10T14:58:03;12.70;;;7.93;;
19221;SDS011;9745;50.828;4.378;2023-05-10T15:00:31;12.80;;;7.30;;
19221;SDS011;9745;50.828;4.378;2023-05-10T15:02:57;10.90;;;7.83;;
19221;SDS011;9745;50.828;4.378;2023-05-10T15:05:23;10.87;;;7.20;;
19221;SDS011;9745;50.828;4.378;2023-05-10T15:07:49;13.20;;;7.27;;
19221;SDS011;9745;50.828;4.378;2023-05-10T15:10:16;9.43;;;6.30;;
19221;SDS011;9745;50.828;4.378;2023-05-10T15:12:42;10.33;;;5.30;;
19221;SDS011;9745;50.828;4.378;2023-05-10T15:15:08;12.17;;;5.60;;
19221;SDS011;9745;50.828;4.378;2023-05-10T15:17:34;9.43;;;5.73;;
19221;SDS011;9745;50.828;4.378;2023-05-10T15:20:00;11.57;;;4.30;;
19221;SDS011;9745;50.828;4.378;2023-05-10T15:22:28;9.90;;;4.87;;
19221;SDS011;9745;50.828;4.378;2023-05-10T15:24:55;11.40;;;4.77;;
19221;SDS011;9745;50.828;4.378;2023-05-10T15:27:21;8.07;;;4.17;;